Time;durP1;ratioP1;P1;durP2;ratioP2;P2;SDS_P1;SDS_P2;PMS_P1;PMS_P2;Temp;Humidity;BMP_temperature;BMP_pressure;BME280_temperature;BME280_humidity;BME280_pressure;Samples;Min_cycle;Max_cycle;Signal;HPM_P1;HPM_P2
2021/04/10 00:01:42;;;;;;;5.28;3.40;;;;;;;;;;5005756;28;20060;-61
2021/04/10 00:04:09;;;;;;;3.83;3.13;;;;;;;;;;5004820;28;20039;-61
2021/04/10 00:06:35;;;;;;;4.63;3.47;;;;;;;;;;5003638;28;20089;-61
2021/04/10 00:09:00;;;;;;;5.63;3.38;;;;;;;;;;5004401;28;20527;-61
2021/04/10 00:11:26;;;;;;;4.20;3.20;;;;;;;;;;5005557;28;20030;-61
2021/04/10 00:13:52;;;;;;;4.32;3.35;;;;;;;;;;5020642;28;20031;-61
2021/04/10 00:16:17;;;;;;;4.82;3.70;;;;;;;;;;5006568;28;20465;-62
2021/04/10 00:18:43;;;;;;;3.80;3.03;;;;;;;;;;5020294;28;20046;-62
2021/04/10 00:21:08;;;;;;;4.90;3.40;;;;;;;;;;5003853;28;20045;-62
2021/04/10 00:23:34;;;;;;;4.30;3.10;;;;;;;;;;5005653;28;20038;-62
2021/04/10 00:25:59;;;;;;;5.85;3.42;;;;;;;;;;5006156;28;20026;-62
2021/04/10 00:28:25;;;;;;;3.53;3.17;;;;;;;;;;5019173;28;20777;-62
2021/04/10 00:30:50;;;;;;;4.47;3.50;;;;;;;;;;5003993;28;20030;-62
2021/04/10 00:33:16;;;;;;;4.75;3.35;;;;;;;;;;4989963;28;20038;-62
2021/04/10 00:35:41;;;;;;;4.15;3.35;;;;;;;;;;5005723;28;20153;-62
2021/04/10 00:38:07;;;;;;;4.32;3.13;;;;;;;;;;5005142;28;20035;-62
2021/04/10 00:40:32;;;;;;;5.47;3.22;;;;;;;;;;5005421;28;20034;-62
2021/04/10 00:42:58;;;;;;;5.03;3.20;;;;;;;;;;5005723;28;20042;-62
2021/04/10 00:45:23;;;;;;;5.30;3.42;;;;;;;;;;5006327;28;20038;-62
2021/04/10 00:47:49;;;;;;;4.35;3.47;;;;;;;;;;5003422;28;20892;-62
2021/04/10 00:50:14;;;;;;;4.82;3.58;;;;;;;;;;5005160;28;20089;-62
2021/04/10 00:52:40;;;;;;;4.55;3.15;;;;;;;;;;5020782;28;20558;-62
2021/04/10 00:55:06;;;;;;;5.10;3.58;;;;;;;;;;5005777;28;20564;-62
2021/04/10 00:57:32;;;;;;;4.28;3.30;;;;;;;;;;5020773;28;20042;-62
2021/04/10 00:59:58;;;;;;;3.92;3.10;;;;;;;;;;5006713;28;20026;-62
2021/04/10 01:02:24;;;;;;;4.82;3.50;;;;;;;;;;5004605;28;20031;-62
2021/04/10 01:04:49;;;;;;;4.65;3.35;;;;;;;;;;5001084;28;20035;-62
2021/04/10 01:07:15;;;;;;;4.03;3.20;;;;;;;;;;5005575;28;20496;-62
2021/04/10 01:09:41;;;;;;;4.20;3.10;;;;;;;;;;5002308;28;20121;-62
2021/04/10 01:12:25;;;;;;;5.60;3.50;;;;;;;;;;4982274;28;20046;-62
2021/04/10 01:15:29;;;;;;;4.57;3.30;;;;;;;;;;5017942;28;20043;-62
2021/04/10 01:18:02;;;;;;;4.70;3.33;;;;;;;;;;5019436;28;20089;-62
2021/04/10 01:21:05;;;;;;;5.38;3.60;;;;;;;;;;5002786;28;20034;-62
2021/04/10 01:23:53;;;;;;;4.00;3.28;;;;;;;;;;5019709;28;20058;-62
2021/04/10 01:26:24;;;;;;;4.15;3.20;;;;;;;;;;5005059;28;20042;-62
2021/04/10 01:28:57;;;;;;;5.40;3.92;;;;;;;;;;5020038;28;20035;-62
2021/04/10 01:31:42;;;;;;;4.57;3.30;;;;;;;;;;4998206;28;20105;-62
2021/04/10 01:34:26;;;;;;;4.25;3.22;;;;;;;;;;5008217;28;20073;-62
2021/04/10 01:36:52;;;;;;;4.88;3.33;;;;;;;;;;5017605;28;20034;-62
2021/04/10 01:39:18;;;;;;;4.82;3.33;;;;;;;;;;5003921;28;20117;-62
2021/04/10 01:41:45;;;;;;;5.18;3.15;;;;;;;;;;5003703;28;20034;-62
2021/04/10 01:44:15;;;;;;;4.70;3.50;;;;;;;;;;5004748;28;20038;-62
2021/04/10 01:46:41;;;;;;;4.28;3.22;;;;;;;;;;5005737;28;20038;-62
2021/04/10 01:49:08;;;;;;;4.22;3.30;;;;;;;;;;5018653;28;20026;-62
2021/04/10 01:51:34;;;;;;;4.68;3.50;;;;;;;;;;5019142;28;20523;-62
2021/04/10 01:54:00;;;;;;;5.38;3.42;;;;;;;;;;5003503;28;20039;-62
2021/04/10 01:56:25;;;;;;;5.38;3.60;;;;;;;;;;5002820;28;20031;-62
2021/04/10 01:58:54;;;;;;;4.22;3.30;;;;;;;;;;5003862;28;20488;-62
2021/04/10 02:01:28;;;;;;;4.60;3.50;;;;;;;;;;4993605;28;20050;-62
2021/04/10 02:03:53;;;;;;;4.25;3.15;;;;;;;;;;5019299;28;20052;-62
2021/04/10 02:06:24;;;;;;;3.38;3.08;;;;;;;;;;4987617;28;20871;-62
2021/04/10 02:08:58;;;;;;;4.82;3.17;;;;;;;;;;5017774;28;20036;-62
2021/04/10 02:11:32;;;;;;;3.80;3.30;;;;;;;;;;4984526;28;20093;-62
2021/04/10 02:14:02;;;;;;;4.72;3.10;;;;;;;;;;5000966;28;20085;-62
2021/04/10 02:16:43;;;;;;;4.45;3.40;;;;;;;;;;5007701;28;20496;-62
2021/04/10 02:19:15;;;;;;;5.68;3.70;;;;;;;;;;5003054;28;20034;-62
2021/04/10 02:21:40;;;;;;;4.95;3.47;;;;;;;;;;5004237;28;20073;-62
2021/04/10 02:24:08;;;;;;;4.60;3.50;;;;;;;;;;5002909;28;20094;-62
2021/04/10 02:26:41;;;;;;;5.00;3.53;;;;;;;;;;5004031;28;20563;-62
2021/04/10 02:29:11;;;;;;;4.43;3.50;;;;;;;;;;5018331;28;20563;-62
2021/04/10 02:31:47;;;;;;;4.45;3.50;;;;;;;;;;5001813;28;20087;-62
2021/04/10 02:34:15;;;;;;;4.15;3.38;;;;;;;;;;5002418;28;20062;-62
2021/04/10 02:36:41;;;;;;;4.75;3.25;;;;;;;;;;5006791;28;20150;-62
2021/04/10 02:39:07;;;;;;;5.78;3.65;;;;;;;;;;5004875;28;20077;-62
2021/04/10 02:41:33;;;;;;;4.55;3.35;;;;;;;;;;5003206;28;20031;-62
2021/04/10 02:44:02;;;;;;;4.57;3.20;;;;;;;;;;5005354;28;20031;-62
2021/04/10 02:46:29;;;;;;;4.70;3.40;;;;;;;;;;5003721;28;20166;-62
2021/04/10 02:48:59;;;;;;;4.32;3.38;;;;;;;;;;5007595;28;20065;-62
2021/04/10 02:51:29;;;;;;;5.50;4.30;;;;;;;;;;5002007;28;20102;-62
2021/04/10 02:53:55;;;;;;;6.40;4.05;;;;;;;;;;4999121;28;20956;-62
2021/04/10 02:56:22;;;;;;;6.13;4.25;;;;;;;;;;5002525;28;20104;-62
2021/04/10 02:58:47;;;;;;;6.72;4.28;;;;;;;;;;5002559;28;20081;-62
2021/04/10 03:01:15;;;;;;;5.53;4.20;;;;;;;;;;4982438;28;20026;-62
2021/04/10 03:03:41;;;;;;;5.43;3.63;;;;;;;;;;4985417;28;20097;-62
2021/04/10 03:06:07;;;;;;;7.38;5.53;;;;;;;;;;5018055;28;20186;-62
2021/04/10 03:08:32;;;;;;;7.28;5.55;;;;;;;;;;5007000;28;20042;-62
2021/04/10 03:11:03;;;;;;;5.72;4.28;;;;;;;;;;5006054;28;20045;-62
2021/04/10 03:13:31;;;;;;;7.40;5.57;;;;;;;;;;5001905;28;20041;-62
2021/04/10 03:16:05;;;;;;;5.82;4.55;;;;;;;;;;5006925;28;20468;-62
2021/04/10 03:18:32;;;;;;;4.63;3.80;;;;;;;;;;5001061;28;20042;-62
2021/04/10 03:21:06;;;;;;;4.70;3.10;;;;;;;;;;4989701;28;20495;-62
2021/04/10 03:23:35;;;;;;;3.03;2.40;;;;;;;;;;4989943;28;20774;-62
2021/04/10 03:26:02;;;;;;;2.35;1.95;;;;;;;;;;5001688;28;20526;-62
2021/04/10 03:28:31;;;;;;;1.60;1.35;;;;;;;;;;4974762;28;20043;-62
2021/04/10 03:30:57;;;;;;;1.83;1.58;;;;;;;;;;5005017;28;20998;-62
2021/04/10 03:33:26;;;;;;;1.30;1.20;;;;;;;;;;4989272;28;20065;-62
2021/04/10 03:35:52;;;;;;;1.92;1.25;;;;;;;;;;4996124;28;20077;-62
2021/04/10 03:38:18;;;;;;;1.90;1.40;;;;;;;;;;5002804;28;20022;-62
2021/04/10 03:40:43;;;;;;;1.40;1.30;;;;;;;;;;4988562;28;20046;-62
2021/04/10 03:43:09;;;;;;;7.63;5.53;;;;;;;;;;5017677;28;20041;-62
2021/04/10 03:45:42;;;;;;;8.88;4.95;;;;;;;;;;5003061;28;20082;-62
2021/04/10 03:48:13;;;;;;;4.45;3.80;;;;;;;;;;5001385;28;20041;-62
2021/04/10 03:50:47;;;;;;;3.63;2.88;;;;;;;;;;4999443;28;20525;-62
2021/04/10 03:53:13;;;;;;;2.92;2.25;;;;;;;;;;5000979;28;20046;-62
2021/04/10 03:55:39;;;;;;;1.95;1.55;;;;;;;;;;5002543;28;20081;-62
2021/04/10 03:58:06;;;;;;;1.27;1.17;;;;;;;;;;5021185;28;20034;-62
2021/04/10 04:00:34;;;;;;;1.08;0.90;;;;;;;;;;5008075;28;20026;-62
2021/04/10 04:03:04;;;;;;;1.20;0.93;;;;;;;;;;5005534;28;20069;-62
2021/04/10 04:05:29;;;;;;;1.40;1.00;;;;;;;;;;5006510;28;20416;-62
2021/04/10 04:07:55;;;;;;;1.13;0.85;;;;;;;;;;5005953;28;20563;-62
2021/04/10 04:10:20;;;;;;;0.85;0.85;;;;;;;;;;5004126;28;20042;-62
2021/04/10 04:12:46;;;;;;;1.60;1.20;;;;;;;;;;5006351;28;20039;-62
2021/04/10 04:15:11;;;;;;;1.48;1.25;;;;;;;;;;5006206;28;20031;-62
2021/04/10 04:17:37;;;;;;;1.65;1.42;;;;;;;;;;5021449;28;20049;-62
2021/04/10 04:20:03;;;;;;;1.70;1.10;;;;;;;;;;5006593;28;20034;-62
2021/04/10 04:22:29;;;;;;;2.20;1.88;;;;;;;;;;5020835;28;20505;-62
2021/04/10 04:24:54;;;;;;;3.17;2.20;;;;;;;;;;5006183;28;20046;-62
2021/04/10 04:27:20;;;;;;;1.90;1.60;;;;;;;;;;5003351;28;20030;-62
2021/04/10 04:29:45;;;;;;;2.30;1.70;;;;;;;;;;5004424;28;20046;-62
2021/04/10 04:32:11;;;;;;;1.42;1.30;;;;;;;;;;5020073;28;20456;-62
2021/04/10 04:34:36;;;;;;;1.15;1.05;;;;;;;;;;5005201;28;20093;-62
2021/04/10 04:37:03;;;;;;;1.65;1.30;;;;;;;;;;5020859;28;20492;-62
2021/04/10 04:39:28;;;;;;;1.05;0.90;;;;;;;;;;5006163;28;20058;-62
2021/04/10 04:41:54;;;;;;;1.10;0.80;;;;;;;;;;5006123;28;20397;-62
2021/04/10 04:44:19;;;;;;;1.20;1.10;;;;;;;;;;5020175;28;20615;-62
2021/04/10 04:46:45;;;;;;;2.22;2.00;;;;;;;;;;4982288;28;20031;-62
2021/04/10 04:49:10;;;;;;;2.25;1.80;;;;;;;;;;5003934;28;20046;-62
2021/04/10 04:51:36;;;;;;;1.90;1.60;;;;;;;;;;5008200;28;20049;-62
2021/04/10 04:54:02;;;;;;;1.33;1.17;;;;;;;;;;5018308;28;20484;-62
2021/04/10 04:56:27;;;;;;;1.42;1.10;;;;;;;;;;5004291;28;20039;-62
2021/04/10 04:58:53;;;;;;;1.20;1.10;;;;;;;;;;5004919;28;20554;-62
2021/04/10 05:01:18;;;;;;;1.13;0.95;;;;;;;;;;5003914;28;20039;-62
2021/04/10 05:03:44;;;;;;;1.17;1.05;;;;;;;;;;5003584;28;20505;-62
2021/04/10 05:06:09;;;;;;;1.00;0.90;;;;;;;;;;5005018;28;20472;-62
2021/04/10 05:08:35;;;;;;;2.00;1.45;;;;;;;;;;5002980;28;20034;-62
2021/04/10 05:11:00;;;;;;;1.77;1.10;;;;;;;;;;5004167;28;20515;-62
2021/04/10 05:13:26;;;;;;;0.82;0.80;;;;;;;;;;5019808;28;20504;-62
2021/04/10 05:15:51;;;;;;;1.85;1.55;;;;;;;;;;5004682;28;20030;-62
2021/04/10 05:20:58;;;;;;;1.42;1.10;;;;;;;;;;4983281;22;20067;-62
2021/04/10 05:23:24;;;;;;;1.30;1.20;;;;;;;;;;4978442;28;20035;-63
2021/04/10 05:25:49;;;;;;;5.97;4.82;;;;;;;;;;4974800;28;20519;-63
2021/04/10 05:28:15;;;;;;;6.15;3.90;;;;;;;;;;4976722;28;20031;-62
2021/04/10 05:30:40;;;;;;;4.07;3.13;;;;;;;;;;4978648;28;20454;-63
2021/04/10 05:33:06;;;;;;;6.03;4.75;;;;;;;;;;4977671;28;20069;-64
2021/04/10 05:35:31;;;;;;;4.53;3.53;;;;;;;;;;4974213;28;20136;-63
2021/04/10 05:37:57;;;;;;;7.43;4.43;;;;;;;;;;4976178;28;20511;-63
2021/04/10 05:40:22;;;;;;;5.18;4.00;;;;;;;;;;4976050;28;20424;-62
2021/04/10 05:42:48;;;;;;;7.78;5.57;;;;;;;;;;4976740;28;20095;-63
2021/04/10 05:45:14;;;;;;;6.60;5.60;;;;;;;;;;4976259;28;20186;-63
2021/04/10 05:47:40;;;;;;;6.75;5.18;;;;;;;;;;4965115;28;20155;-63
2021/04/10 05:50:06;;;;;;;6.88;5.25;;;;;;;;;;4975742;28;20019;-63
2021/04/10 05:52:32;;;;;;;5.55;4.43;;;;;;;;;;4984411;28;20047;-63
2021/04/10 05:54:58;;;;;;;7.68;5.05;;;;;;;;;;4975601;28;20032;-63
2021/04/10 05:57:23;;;;;;;5.28;4.18;;;;;;;;;;4975584;28;20125;-63
2021/04/10 05:59:49;;;;;;;6.60;5.43;;;;;;;;;;4974779;28;20497;-63
2021/04/10 06:02:14;;;;;;;7.88;5.80;;;;;;;;;;4964551;28;20187;-63
2021/04/10 06:04:40;;;;;;;7.80;5.72;;;;;;;;;;4976399;28;20031;-63
2021/04/10 06:07:05;;;;;;;6.97;5.35;;;;;;;;;;4976930;28;20505;-63
2021/04/10 06:09:31;;;;;;;6.68;5.00;;;;;;;;;;4978729;28;20041;-63
2021/04/10 06:11:56;;;;;;;6.57;5.25;;;;;;;;;;4975024;28;20505;-63
2021/04/10 06:14:22;;;;;;;6.65;5.30;;;;;;;;;;4976682;28;20225;-63
2021/04/10 06:16:48;;;;;;;8.00;5.53;;;;;;;;;;4975570;28;20561;-63
2021/04/10 06:19:14;;;;;;;8.05;5.45;;;;;;;;;;4974531;28;20113;-63
2021/04/10 06:21:40;;;;;;;7.13;5.28;;;;;;;;;;4981270;28;20043;-63
2021/04/10 06:24:05;;;;;;;7.72;5.43;;;;;;;;;;4975204;28;20050;-63
2021/04/10 06:26:31;;;;;;;6.63;4.88;;;;;;;;;;4976902;28;20687;-63
2021/04/10 06:28:56;;;;;;;6.72;5.28;;;;;;;;;;4975102;28;20042;-63
2021/04/10 06:31:22;;;;;;;7.85;5.30;;;;;;;;;;4976440;28;20745;-63
2021/04/10 06:33:47;;;;;;;6.97;5.35;;;;;;;;;;4975381;28;20071;-63
2021/04/10 06:36:13;;;;;;;6.47;4.95;;;;;;;;;;4975210;28;20035;-63
2021/04/10 06:38:38;;;;;;;6.40;4.68;;;;;;;;;;4980388;28;20481;-63
2021/04/10 06:41:04;;;;;;;7.32;5.15;;;;;;;;;;4975577;28;20113;-63
2021/04/10 06:43:30;;;;;;;6.63;4.75;;;;;;;;;;4974924;28;20074;-63
2021/04/10 06:45:57;;;;;;;7.63;4.68;;;;;;;;;;4974095;28;20035;-63
2021/04/10 06:48:23;;;;;;;6.60;4.90;;;;;;;;;;4976269;28;20063;-63
2021/04/10 06:50:48;;;;;;;7.75;5.15;;;;;;;;;;4957615;28;20040;-64
2021/04/10 06:53:15;;;;;;;7.05;5.10;;;;;;;;;;4959237;28;20107;-63
2021/04/10 06:55:44;;;;;;;7.10;5.05;;;;;;;;;;4978683;28;20039;-63
2021/04/10 06:58:10;;;;;;;8.40;4.97;;;;;;;;;;4975608;28;20058;-63
2021/04/10 07:00:35;;;;;;;7.25;4.88;;;;;;;;;;4957466;28;20505;-63
2021/04/10 07:03:01;;;;;;;6.07;4.72;;;;;;;;;;4976731;28;20097;-63
2021/04/10 07:05:27;;;;;;;6.82;4.40;;;;;;;;;;4977869;28;20797;-63
2021/04/10 07:07:53;;;;;;;6.78;4.75;;;;;;;;;;4980960;28;20036;-63
2021/04/10 07:10:19;;;;;;;5.80;4.50;;;;;;;;;;4980448;28;20045;-63
2021/04/10 07:12:44;;;;;;;6.90;4.47;;;;;;;;;;4975465;28;20054;-63
2021/04/10 07:15:12;;;;;;;7.07;4.68;;;;;;;;;;4974401;28;20035;-63
2021/04/10 07:17:37;;;;;;;7.63;4.70;;;;;;;;;;4976134;28;20039;-63
2021/04/10 07:20:22;;;;;;;6.68;4.78;;;;;;;;;;4989907;28;20552;-63
2021/04/10 07:23:04;;;;;;;5.97;4.45;;;;;;;;;;4974505;28;20093;-63
2021/04/10 07:25:31;;;;;;;6.80;4.78;;;;;;;;;;4981690;28;20039;-63
2021/04/10 07:28:23;;;;;;;6.45;4.70;;;;;;;;;;4974057;28;20610;-63
2021/04/10 07:30:58;;;;;;;;;;;;;;;;;;4986547;28;20569;-62
2021/04/10 07:33:25;;;;;;;6.85;4.88;;;;;;;;;;4977817;28;20019;-62
2021/04/10 07:35:50;;;;;;;7.30;5.30;;;;;;;;;;4979108;28;20035;-62
2021/04/10 07:38:26;;;;;;;6.55;4.97;;;;;;;;;;4975989;28;20031;-62
2021/04/10 07:40:51;;;;;;;8.07;5.57;;;;;;;;;;4979371;28;20078;-62
2021/04/10 07:43:28;;;;;;;9.20;5.82;;;;;;;;;;4977626;28;20036;-63
2021/04/10 07:46:20;;;;;;;7.85;5.28;;;;;;;;;;4978481;28;20035;-63
2021/04/10 07:49:18;;;;;;;8.50;5.72;;;;;;;;;;4979487;28;20110;-63
2021/04/10 07:51:56;;;;;;;8.05;5.90;;;;;;;;;;4959963;28;20067;-63
2021/04/10 07:54:32;;;;;;;8.38;6.13;;;;;;;;;;4978353;28;20126;-63
2021/04/10 07:57:00;;;;;;;7.55;5.97;;;;;;;;;;4977920;28;20039;-63
2021/04/10 07:59:26;;;;;;;7.40;5.60;;;;;;;;;;4978866;28;20027;-63
2021/04/10 08:01:51;;;;;;;7.78;6.10;;;;;;;;;;4978815;28;20695;-63
2021/04/10 08:04:17;;;;;;;8.93;6.38;;;;;;;;;;4979687;28;20509;-63
2021/04/10 08:07:01;;;;;;;7.75;5.65;;;;;;;;;;4984787;28;20035;-63
2021/04/10 08:09:37;;;;;;;8.57;6.03;;;;;;;;;;4978519;28;20485;-63
2021/04/10 08:12:06;;;;;;;7.95;6.13;;;;;;;;;;4978610;28;20166;-63
2021/04/10 08:14:43;;;;;;;8.40;6.28;;;;;;;;;;4958943;28;20046;-63
2021/04/10 08:17:08;;;;;;;7.95;6.07;;;;;;;;;;4975504;28;20103;-63
2021/04/10 08:19:34;;;;;;;8.65;6.53;;;;;;;;;;4976413;28;20417;-63
2021/04/10 08:21:59;;;;;;;8.10;6.03;;;;;;;;;;4977853;28;20564;-62
2021/04/10 08:24:38;;;;;;;8.45;6.20;;;;;;;;;;4977985;28;20166;-62
2021/04/10 08:27:21;;;;;;;8.88;6.43;;;;;;;;;;4979150;28;20035;-62
2021/04/10 08:29:47;;;;;;;8.70;6.45;;;;;;;;;;4982448;28;20107;-62
2021/04/10 08:32:12;;;;;;;8.07;6.30;;;;;;;;;;4979606;28;20049;-62
2021/04/10 08:34:38;;;;;;;8.90;6.50;;;;;;;;;;4980301;28;20026;-62
2021/04/10 08:37:07;;;;;;;8.88;6.68;;;;;;;;;;4979527;28;20042;-62
2021/04/10 08:39:35;;;;;;;2.03;1.40;;;;;;;;;;4979599;28;20046;-63
2021/04/10 08:42:02;;;;;;;9.77;6.75;;;;;;;;;;4978000;28;20117;-63
2021/04/10 08:44:29;;;;;;;9.23;6.82;;;;;;;;;;4984177;28;20133;-63
2021/04/10 08:46:55;;;;;;;8.85;6.80;;;;;;;;;;4977293;28;20027;-63
2021/04/10 08:49:21;;;;;;;9.07;6.72;;;;;;;;;;4977648;28;20058;-63
2021/04/10 08:51:48;;;;;;;1.88;1.23;;;;;;;;;;4977408;28;20047;-63
2021/04/10 08:54:14;;;;;;;8.52;7.03;;;;;;;;;;4961436;28;20121;-63
2021/04/10 08:56:40;;;;;;;8.50;6.20;;;;;;;;;;4961147;28;20404;-63
2021/04/10 08:59:14;;;;;;;2.17;1.33;;;;;;;;;;4963114;28;20039;-63
2021/04/10 09:01:42;;;;;;;8.18;6.38;;;;;;;;;;4978060;28;20130;-63
2021/04/10 09:04:08;;;;;;;1.77;1.05;;;;;;;;;;4982925;28;20115;-63
2021/04/10 09:06:40;;;;;;;1.63;1.25;;;;;;;;;;4979196;28;20644;-63
2021/04/10 09:09:11;;;;;;;3.20;2.00;;;;;;;;;;4977919;28;20083;-63
2021/04/10 09:11:43;;;;;;;2.42;1.50;;;;;;;;;;4978948;28;20068;-63
2021/04/10 09:14:09;;;;;;;2.35;1.30;;;;;;;;;;4977970;28;20501;-63
2021/04/10 09:16:56;;;;;;;1.92;1.10;;;;;;;;;;4966469;28;20035;-63
2021/04/10 09:19:24;;;;;;;2.17;1.27;;;;;;;;;;4976294;28;20039;-63
2021/04/10 09:21:59;;;;;;;1.52;0.98;;;;;;;;;;4975733;28;20333;-63
2021/04/10 09:24:51;;;;;;;1.10;0.80;;;;;;;;;;4983251;28;20043;-63
2021/04/10 09:27:20;;;;;;;;;;;;;;;;;;4976056;28;20824;-63
2021/04/10 09:29:46;;;;;;;1.42;1.20;;;;;;;;;;4978943;28;19917;-63
2021/04/10 09:32:12;;;;;;;1.95;1.10;;;;;;;;;;4976993;28;20027;-63
2021/04/10 09:34:43;;;;;;;2.58;1.60;;;;;;;;;;4975205;28;20477;-63
2021/04/10 09:37:10;;;;;;;1.63;1.23;;;;;;;;;;4975458;28;20043;-63
2021/04/10 09:39:55;;;;;;;1.67;1.27;;;;;;;;;;4977065;28;20568;-62
2021/04/10 09:42:37;;;;;;;1.38;0.98;;;;;;;;;;4979696;28;20039;-62
2021/04/10 09:45:15;;;;;;;2.00;1.80;;;;;;;;;;4977672;28;20523;-62
2021/04/10 09:47:55;;;;;;;1.67;1.00;;;;;;;;;;4978592;28;20090;-62
2021/04/10 09:50:27;;;;;;;8.38;6.13;;;;;;;;;;4978813;28;20130;-62
2021/04/10 09:52:55;;;;;;;8.77;6.32;;;;;;;;;;4976717;28;20223;-62
2021/04/10 09:55:21;;;;;;;4.60;1.20;;;;;;;;;;4978250;28;20114;-62
2021/04/10 09:58:00;;;;;;;7.53;6.07;;;;;;;;;;4976532;28;20726;-62
2021/04/10 10:00:30;;;;;;;8.25;6.22;;;;;;;;;;4979465;28;20101;-62
2021/04/10 10:02:56;;;;;;;7.72;6.07;;;;;;;;;;4998507;28;20214;-62
2021/04/10 10:05:22;;;;;;;7.22;6.13;;;;;;;;;;4975928;28;20098;-62
2021/04/10 10:07:47;;;;;;;8.98;6.63;;;;;;;;;;4977325;28;20389;-62
2021/04/10 10:10:13;;;;;;;8.68;6.75;;;;;;;;;;4976836;28;20035;-62
2021/04/10 10:12:39;;;;;;;8.85;6.28;;;;;;;;;;4982579;28;21673;-62
2021/04/10 10:15:24;;;;;;;9.18;6.55;;;;;;;;;;4977627;28;20043;-62
2021/04/10 10:17:50;;;;;;;7.25;5.82;;;;;;;;;;4971313;28;20031;-62
2021/04/10 10:20:16;;;;;;;8.02;6.03;;;;;;;;;;4976712;28;20470;-62
2021/04/10 10:22:42;;;;;;;7.30;5.97;;;;;;;;;;4977831;28;20027;-62
2021/04/10 10:25:08;;;;;;;8.25;6.70;;;;;;;;;;4977455;28;20503;-63
2021/04/10 10:27:34;;;;;;;2.60;1.35;;;;;;;;;;4976639;28;20078;-62
2021/04/10 10:29:59;;;;;;;8.70;6.85;;;;;;;;;;4976491;28;20030;-62
2021/04/10 10:32:25;;;;;;;8.77;6.60;;;;;;;;;;4976117;28;20054;-62
2021/04/10 10:34:50;;;;;;;8.50;7.00;;;;;;;;;;4976433;28;20031;-62
2021/04/10 10:37:16;;;;;;;2.53;1.48;;;;;;;;;;4963061;28;20039;-62
2021/04/10 10:39:43;;;;;;;9.13;6.40;;;;;;;;;;4977754;28;20027;-62
2021/04/10 10:42:08;;;;;;;5.30;1.38;;;;;;;;;;4965920;28;20041;-62
2021/04/10 10:44:36;;;;;;;7.72;2.00;;;;;;;;;;4977003;28;20058;-62
2021/04/10 10:47:08;;;;;;;7.32;2.38;;;;;;;;;;4973355;28;20113;-62
2021/04/10 10:49:33;;;;;;;;;;;;;;;;;;4977342;28;20122;-63
2021/04/10 10:51:59;;;;;;;8.98;6.75;;;;;;;;;;4975416;28;19926;-63
2021/04/10 10:54:31;;;;;;;8.85;6.80;;;;;;;;;;4981289;28;20023;-63
2021/04/10 10:56:56;;;;;;;9.38;7.40;;;;;;;;;;4974807;28;20086;-63
2021/04/10 10:59:25;;;;;;;8.18;6.43;;;;;;;;;;4975317;28;20039;-63
2021/04/10 11:01:51;;;;;;;7.78;6.28;;;;;;;;;;4944062;28;20049;-63
2021/04/10 11:04:29;;;;;;;9.18;6.65;;;;;;;;;;4979102;28;20047;-63
2021/04/10 11:06:57;;;;;;;8.88;7.03;;;;;;;;;;4986391;28;20102;-63
2021/04/10 11:09:43;;;;;;;9.00;6.45;;;;;;;;;;4979784;28;20061;-63
2021/04/10 11:12:13;;;;;;;8.95;6.30;;;;;;;;;;4984843;28;20089;-63
2021/04/10 11:14:46;;;;;;;8.43;6.72;;;;;;;;;;4969920;28;20493;-63
2021/04/10 11:17:12;;;;;;;9.10;7.25;;;;;;;;;;4980349;28;20030;-63
2021/04/10 11:19:40;;;;;;;8.93;6.95;;;;;;;;;;4966865;28;20049;-63
2021/04/10 11:22:08;;;;;;;9.25;7.07;;;;;;;;;;4978924;28;20022;-63
2021/04/10 11:24:44;;;;;;;9.90;7.35;;;;;;;;;;4977682;28;20122;-63
2021/04/10 11:27:36;;;;;;;8.20;7.18;;;;;;;;;;4962176;28;20925;-63
2021/04/10 11:30:11;;;;;;;9.77;7.25;;;;;;;;;;4960972;28;21304;-63
2021/04/10 11:32:43;;;;;;;8.73;6.70;;;;;;;;;;4980627;28;20081;-63
2021/04/10 11:35:29;;;;;;;8.55;2.90;;;;;;;;;;4978333;28;20554;-63
2021/04/10 11:37:56;;;;;;;8.73;6.75;;;;;;;;;;4978762;28;20130;-63
2021/04/10 11:40:28;;;;;;;9.20;7.05;;;;;;;;;;4977950;28;20049;-63
2021/04/10 11:42:58;;;;;;;10.15;7.55;;;;;;;;;;4976792;28;20539;-63
2021/04/10 11:45:28;;;;;;;9.55;7.55;;;;;;;;;;4979003;28;20041;-63
2021/04/10 11:48:19;;;;;;;9.93;7.97;;;;;;;;;;4977260;28;20365;-63
2021/04/10 11:50:54;;;;;;;10.00;7.78;;;;;;;;;;4979065;28;20042;-63
2021/04/10 11:53:22;;;;;;;8.65;7.43;;;;;;;;;;4984429;28;20051;-63
2021/04/10 11:55:48;;;;;;;9.65;7.93;;;;;;;;;;4978370;28;20038;-62
2021/04/10 11:58:14;;;;;;;9.05;7.40;;;;;;;;;;4979620;28;20023;-62
2021/04/10 12:00:39;;;;;;;8.77;7.00;;;;;;;;;;4977578;28;20099;-62
2021/04/10 12:03:09;;;;;;;8.27;3.15;;;;;;;;;;4978881;28;20047;-62
2021/04/10 12:05:41;;;;;;;10.38;7.50;;;;;;;;;;4979873;28;20039;-62
2021/04/10 12:08:14;;;;;;;9.43;7.20;;;;;;;;;;4977630;28;20046;-63
2021/04/10 12:10:41;;;;;;;9.07;7.10;;;;;;;;;;4980213;28;21404;-63
2021/04/10 12:13:06;;;;;;;8.82;7.20;;;;;;;;;;4979593;28;20074;-63
2021/04/10 12:15:33;;;;;;;8.95;6.90;;;;;;;;;;4976827;28;20035;-62
2021/04/10 12:17:59;;;;;;;9.10;7.50;;;;;;;;;;4994391;28;20163;-63
2021/04/10 12:20:25;;;;;;;8.95;6.85;;;;;;;;;;4983718;28;20039;-63
2021/04/10 12:22:51;;;;;;;8.18;6.70;;;;;;;;;;4978862;28;20035;-63
2021/04/10 12:25:17;;;;;;;8.25;6.47;;;;;;;;;;4976420;28;20103;-63
2021/04/10 12:27:43;;;;;;;9.23;6.53;;;;;;;;;;4978792;28;20540;-63
2021/04/10 12:30:09;;;;;;;7.53;5.97;;;;;;;;;;4979023;28;20023;-63
2021/04/10 12:32:35;;;;;;;8.00;6.10;;;;;;;;;;4979644;28;20034;-63
2021/04/10 12:35:01;;;;;;;9.73;6.88;;;;;;;;;;4992593;28;20038;-63
2021/04/10 12:37:26;;;;;;;7.60;6.18;;;;;;;;;;4984619;28;20073;-63
2021/04/10 12:39:51;;;;;;;7.45;5.97;;;;;;;;;;4978147;28;20039;-63
2021/04/10 12:42:17;;;;;;;6.68;5.30;;;;;;;;;;4992711;28;20034;-63
2021/04/10 12:44:42;;;;;;;7.43;5.20;;;;;;;;;;4979254;28;20046;-63
2021/04/10 12:47:17;;;;;;;5.80;4.63;;;;;;;;;;4977915;28;20023;-63
2021/04/10 12:49:43;;;;;;;6.40;5.18;;;;;;;;;;4977346;28;20489;-63
2021/04/10 12:52:09;;;;;;;7.00;5.20;;;;;;;;;;4984771;28;20055;-63
2021/04/10 12:54:34;;;;;;;6.03;4.70;;;;;;;;;;4977677;28;20043;-63
2021/04/10 12:57:00;;;;;;;5.95;4.60;;;;;;;;;;4983404;28;20035;-63
2021/04/10 12:59:25;;;;;;;5.47;4.45;;;;;;;;;;4977897;28;20066;-63
2021/04/10 13:01:51;;;;;;;5.38;4.20;;;;;;;;;;4979583;28;20449;-63
2021/04/10 13:04:16;;;;;;;5.78;4.70;;;;;;;;;;4977628;28;20031;-63
2021/04/10 13:06:42;;;;;;;5.95;4.65;;;;;;;;;;4978611;28;20426;-63
2021/04/10 13:09:07;;;;;;;5.55;4.00;;;;;;;;;;4978436;28;20039;-63
2021/04/10 13:11:33;;;;;;;5.22;3.95;;;;;;;;;;4991946;28;20395;-63
2021/04/10 13:13:58;;;;;;;5.65;4.50;;;;;;;;;;4994607;28;20036;-63
2021/04/10 13:16:23;;;;;;;4.85;4.13;;;;;;;;;;4993364;28;20023;-63
2021/04/10 13:18:49;;;;;;;5.15;4.03;;;;;;;;;;4992862;28;20039;-63
2021/04/10 13:21:14;;;;;;;5.18;4.20;;;;;;;;;;4992344;28;20034;-63
2021/04/10 13:23:40;;;;;;;5.70;4.15;;;;;;;;;;4976512;28;20035;-63
2021/04/10 13:26:05;;;;;;;5.85;4.15;;;;;;;;;;4979411;28;20038;-63
2021/04/10 13:28:31;;;;;;;5.55;4.60;;;;;;;;;;4978241;28;20039;-63
2021/04/10 13:30:59;;;;;;;6.22;4.40;;;;;;;;;;4977604;28;20033;-63
2021/04/10 13:33:26;;;;;;;5.53;4.45;;;;;;;;;;4994057;28;20097;-63
2021/04/10 13:35:51;;;;;;;5.28;4.05;;;;;;;;;;4978063;28;20066;-63
2021/04/10 13:38:17;;;;;;;6.30;4.25;;;;;;;;;;4977067;28;20041;-63
2021/04/10 13:40:42;;;;;;;5.90;4.63;;;;;;;;;;4977351;28;20677;-63
2021/04/10 13:43:07;;;;;;;5.15;4.43;;;;;;;;;;4979178;28;20043;-63
2021/04/10 13:45:33;;;;;;;5.25;4.30;;;;;;;;;;4980815;28;20045;-63
2021/04/10 13:47:58;;;;;;;5.22;4.50;;;;;;;;;;4975891;28;20085;-63
2021/04/10 13:50:24;;;;;;;6.20;4.82;;;;;;;;;;4976571;28;20027;-63
2021/04/10 13:52:49;;;;;;;5.20;4.38;;;;;;;;;;4975909;28;20094;-63
2021/04/10 13:55:15;;;;;;;5.85;4.70;;;;;;;;;;4992094;28;21069;-63
2021/04/10 13:57:40;;;;;;;6.18;4.53;;;;;;;;;;4991810;28;20102;-63
2021/04/10 14:00:06;;;;;;;5.38;4.57;;;;;;;;;;4975975;28;20027;-63
2021/04/10 14:02:37;;;;;;;5.85;4.53;;;;;;;;;;4975281;28;20039;-63
2021/04/10 14:05:08;;;;;;;5.30;4.40;;;;;;;;;;4975360;28;20051;-63
2021/04/10 14:07:34;;;;;;;5.80;4.40;;;;;;;;;;4976679;28;20031;-63
2021/04/10 14:10:00;;;;;;;5.63;4.40;;;;;;;;;;4975488;28;20055;-63
2021/04/10 14:12:25;;;;;;;5.45;4.40;;;;;;;;;;4961020;28;20169;-63
2021/04/10 14:14:52;;;;;;;5.22;4.43;;;;;;;;;;4976432;28;20049;-63
2021/04/10 14:17:17;;;;;;;5.13;4.60;;;;;;;;;;4976618;28;20102;-63
2021/04/10 14:19:43;;;;;;;5.28;4.55;;;;;;;;;;4974384;28;20481;-63
2021/04/10 14:22:08;;;;;;;5.25;4.38;;;;;;;;;;4976333;28;20569;-63
2021/04/10 14:24:35;;;;;;;5.65;4.63;;;;;;;;;;4977204;28;20046;-63
2021/04/10 14:27:00;;;;;;;6.50;4.88;;;;;;;;;;4975867;28;20046;-63
2021/04/10 14:29:26;;;;;;;5.60;4.40;;;;;;;;;;4976021;28;20019;-63
2021/04/10 14:31:51;;;;;;;6.63;4.80;;;;;;;;;;4977248;28;20613;-63
2021/04/10 14:34:16;;;;;;;5.35;4.30;;;;;;;;;;4977917;28;20037;-63
2021/04/10 14:36:42;;;;;;;5.57;4.72;;;;;;;;;;4975972;28;20035;-63
2021/04/10 14:39:08;;;;;;;5.55;4.47;;;;;;;;;;4972896;28;20046;-63
2021/04/10 14:41:33;;;;;;;6.30;4.95;;;;;;;;;;4975652;28;20512;-63
2021/04/10 14:43:59;;;;;;;6.60;4.80;;;;;;;;;;4976987;28;20039;-63
2021/04/10 14:46:25;;;;;;;5.22;4.55;;;;;;;;;;4977911;28;20764;-63
2021/04/10 14:48:51;;;;;;;5.13;4.63;;;;;;;;;;4975522;28;20506;-63
2021/04/10 14:51:16;;;;;;;5.60;4.78;;;;;;;;;;4974088;28;20246;-62
2021/04/10 14:53:42;;;;;;;7.03;4.65;;;;;;;;;;4975769;28;20038;-62